createdAt,value
2017-04-17T00:00:19.702Z,0
2017-04-17T00:01:30.726Z,0
2017-04-17T00:02:41.756Z,0
2017-04-17T00:03:53.001Z,0
2017-04-17T00:05:04.030Z,0
2017-04-17T00:06:15.270Z,0
2017-04-17T00:07:26.287Z,0
2017-04-17T00:08:37.316Z,0
2017-04-17T00:09:48.349Z,0
2017-04-17T00:10:59.508Z,0
2017-04-17T00:12:10.923Z,0
2017-04-17T00:13:21.948Z,0
2017-04-17T00:14:33.172Z,0
2017-04-17T00:15:44.192Z,0
2017-04-17T00:16:55.214Z,0
2017-04-17T00:18:06.234Z,0
2017-04-17T00:19:17.309Z,0
2017-04-17T00:20:28.344Z,0
2017-04-17T00:21:39.371Z,0
2017-04-17T00:22:50.408Z,0
2017-04-17T00:24:01.430Z,0
2017-04-17T00:25:12.456Z,0
2017-04-17T00:26:23.683Z,0
2017-04-17T00:27:34.709Z,0
2017-04-17T00:28:45.742Z,0
2017-04-17T00:29:57.224Z,0
2017-04-17T00:31:08.253Z,0
2017-04-17T00:32:19.277Z,0
2017-04-17T00:33:30.307Z,0
2017-04-17T00:34:41.349Z,0
2017-04-17T00:35:52.371Z,0
2017-04-17T00:37:03.405Z,0
2017-04-17T00:38:14.446Z,0
2017-04-17T00:39:25.476Z,0
2017-04-17T00:40:36.753Z,0
2017-04-17T00:41:47.786Z,0
2017-04-17T00:42:59.214Z,0
2017-04-17T00:44:10.228Z,0
2017-04-17T00:45:21.257Z,0
2017-04-17T00:46:32.282Z,0
2017-04-17T00:47:43.317Z,0
2017-04-17T00:48:54.766Z,0
2017-04-17T00:50:05.789Z,0
2017-04-17T00:51:17.022Z,0
2017-04-17T00:52:28.054Z,0
2017-04-17T00:53:39.067Z,0
2017-04-17T00:54:50.089Z,0
2017-04-17T00:56:01.111Z,0
2017-04-17T00:57:12.138Z,0
2017-04-17T00:58:23.161Z,0
2017-04-17T00:59:34.394Z,0
2017-04-17T01:00:45.617Z,0
2017-04-17T01:01:56.686Z,0
2017-04-17T01:03:07.715Z,0
2017-04-17T01:04:18.751Z,0
2017-04-17T01:05:29.778Z,0
2017-04-17T01:06:40.813Z,0
2017-04-17T01:07:51.845Z,0
2017-04-17T01:09:02.872Z,0
2017-04-17T01:10:13.890Z,0
2017-04-17T01:11:24.918Z,0
2017-04-17T01:12:35.995Z,0
2017-04-17T01:13:47.230Z,0
2017-04-17T01:14:58.266Z,0
2017-04-17T01:16:09.300Z,0
2017-04-17T01:17:20.333Z,0
2017-04-17T01:18:31.369Z,0
2017-04-17T01:19:42.391Z,0
2017-04-17T01:20:53.420Z,0
2017-04-17T01:22:04.716Z,0
2017-04-17T01:23:15.802Z,0
2017-04-17T01:24:26.836Z,0
2017-04-17T01:25:38.057Z,0
2017-04-17T01:26:49.093Z,0
2017-04-17T01:28:00.126Z,0
2017-04-17T01:29:11.154Z,0
2017-04-17T01:30:22.184Z,0
2017-04-17T01:31:33.422Z,0
2017-04-17T01:32:44.449Z,0
2017-04-17T01:33:55.481Z,0
2017-04-17T01:35:06.547Z,0
2017-04-17T01:36:17.577Z,0
2017-04-17T01:37:28.600Z,0
2017-04-17T01:38:39.637Z,0
2017-04-17T01:39:50.671Z,0
2017-04-17T01:41:01.894Z,0
2017-04-17T01:42:12.952Z,0
2017-04-17T01:43:24.033Z,0
2017-04-17T01:44:35.111Z,0
2017-04-17T01:45:46.134Z,0
2017-04-17T01:46:57.166Z,0
2017-04-17T01:48:08.387Z,0
2017-04-17T01:49:19.425Z,0
2017-04-17T01:50:30.441Z,0
2017-04-17T01:51:41.495Z,0
2017-04-17T01:52:52.723Z,0
2017-04-17T01:54:03.751Z,0
2017-04-17T01:55:14.828Z,0
2017-04-17T01:56:25.871Z,0
2017-04-17T01:57:36.876Z,0
2017-04-17T01:58:48.109Z,0
2017-04-17T01:59:59.340Z,0
2017-04-17T02:01:10.359Z,0
2017-04-17T02:02:21.384Z,0
2017-04-17T02:03:32.426Z,0
2017-04-17T02:04:43.695Z,0
2017-04-17T02:05:55.056Z,0
2017-04-17T02:07:06.159Z,0
2017-04-17T02:08:17.177Z,0
2017-04-17T02:09:28.209Z,0
2017-04-17T02:10:39.246Z,0
2017-04-17T02:11:50.494Z,0
2017-04-17T02:13:01.521Z,0
2017-04-17T02:14:12.552Z,0
2017-04-17T02:15:23.783Z,0
2017-04-17T02:16:35.012Z,0
2017-04-17T02:17:46.052Z,0
2017-04-17T02:18:57.287Z,0
2017-04-17T02:20:08.309Z,0
2017-04-17T02:21:19.332Z,0
2017-04-17T02:22:30.573Z,0
2017-04-17T02:23:41.592Z,0
2017-04-17T02:24:52.613Z,0
2017-04-17T02:26:03.644Z,0
2017-04-17T02:27:14.718Z,0
2017-04-17T02:28:25.729Z,0
2017-04-17T02:29:37.127Z,0
2017-04-17T02:30:48.152Z,0
2017-04-17T02:31:59.184Z,0
2017-04-17T02:33:10.208Z,0
2017-04-17T02:34:21.430Z,0
2017-04-17T02:35:32.452Z,0
2017-04-17T02:36:43.680Z,0
2017-04-17T02:37:54.741Z,0
2017-04-17T02:39:05.970Z,0
2017-04-17T02:40:17.195Z,0
2017-04-17T02:41:28.417Z,0
2017-04-17T02:42:39.449Z,0
2017-04-17T02:43:50.486Z,0
2017-04-17T02:45:01.515Z,0
2017-04-17T02:46:12.743Z,0
2017-04-17T02:47:23.977Z,0
2017-04-17T02:48:35.267Z,0
2017-04-17T02:49:46.887Z,0
2017-04-17T02:50:57.918Z,0
2017-04-17T02:52:09.141Z,0
2017-04-17T02:53:20.174Z,0
2017-04-17T02:54:31.405Z,0
2017-04-17T02:55:42.432Z,0
2017-04-17T02:56:53.657Z,0
2017-04-17T02:58:04.683Z,0
2017-04-17T02:59:15.713Z,0
2017-04-17T03:00:26.743Z,0
2017-04-17T03:01:37.769Z,0
2017-04-17T03:02:49.038Z,0
2017-04-17T03:04:00.309Z,0
2017-04-17T03:05:11.333Z,0
2017-04-17T03:06:22.352Z,0
2017-04-17T03:07:33.585Z,0
2017-04-17T03:08:44.626Z,0
2017-04-17T03:09:55.860Z,0
2017-04-17T03:11:06.908Z,0
2017-04-17T03:12:18.091Z,0
2017-04-17T03:13:29.322Z,0
2017-04-17T03:14:40.595Z,0
2017-04-17T03:15:51.631Z,0
2017-04-17T03:17:02.661Z,0
2017-04-17T03:18:13.691Z,0
2017-04-17T03:19:24.725Z,0
2017-04-17T03:20:35.795Z,0
2017-04-17T03:21:46.826Z,0
2017-04-17T03:22:57.848Z,0
2017-04-17T03:24:08.874Z,0
2017-04-17T03:25:19.956Z,0
2017-04-17T03:26:30.985Z,0
2017-04-17T03:27:42.006Z,0
2017-04-17T03:28:53.024Z,0
2017-04-17T03:30:04.460Z,0
2017-04-17T03:31:15.690Z,0
2017-04-17T03:32:26.733Z,0
2017-04-17T03:33:37.975Z,0
2017-04-17T03:34:49.199Z,0
2017-04-17T03:36:00.650Z,0
2017-04-17T03:37:11.848Z,0
2017-04-17T03:38:22.872Z,0
2017-04-17T03:39:34.104Z,0
2017-04-17T03:40:45.336Z,0
2017-04-17T03:41:56.367Z,0
2017-04-17T03:43:07.594Z,0
2017-04-17T03:44:18.627Z,0
2017-04-17T03:45:29.635Z,0
2017-04-17T03:46:40.719Z,0
2017-04-17T03:47:51.741Z,0
2017-04-17T03:49:02.969Z,0
2017-04-17T03:50:14.198Z,0
2017-04-17T03:51:25.426Z,0
2017-04-17T03:52:36.454Z,0
2017-04-17T03:53:47.486Z,0
2017-04-17T03:54:58.522Z,0
2017-04-17T03:56:09.542Z,0
2017-04-17T03:57:20.813Z,0
2017-04-17T03:58:31.832Z,0
2017-04-17T03:59:42.939Z,0
2017-04-17T04:00:53.967Z,0
2017-04-17T04:02:04.982Z,0
2017-04-17T04:03:16.001Z,0
2017-04-17T04:04:27.030Z,0
2017-04-17T04:05:38.057Z,0
2017-04-17T04:06:49.094Z,0
2017-04-17T04:08:00.167Z,0
2017-04-17T04:09:11.394Z,0
2017-04-17T04:10:22.447Z,0
2017-04-17T04:11:33.486Z,0
2017-04-17T04:12:44.516Z,0
2017-04-17T04:13:55.546Z,0
2017-04-17T04:15:06.604Z,0
2017-04-17T04:16:17.632Z,0
2017-04-17T04:17:28.665Z,0
2017-04-17T04:18:39.746Z,0
2017-04-17T04:19:50.774Z,0
2017-04-17T04:21:02.051Z,0
2017-04-17T04:22:13.074Z,0
2017-04-17T04:23:24.103Z,0
2017-04-17T04:24:35.132Z,0
2017-04-17T04:25:46.185Z,0
2017-04-17T04:26:57.204Z,0
2017-04-17T04:28:08.238Z,0
2017-04-17T04:29:19.513Z,0
2017-04-17T04:30:30.533Z,0
2017-04-17T04:31:41.561Z,0
2017-04-17T04:32:52.590Z,0
2017-04-17T04:34:03.606Z,5
2017-04-17T04:35:14.636Z,5
2017-04-17T04:36:25.664Z,5
2017-04-17T04:37:36.920Z,5
2017-04-17T04:38:47.950Z,5
2017-04-17T04:39:59.220Z,10
2017-04-17T04:41:10.235Z,10
2017-04-17T04:42:21.259Z,10
2017-04-17T04:43:32.491Z,10
2017-04-17T04:44:43.517Z,10
2017-04-17T04:45:54.572Z,10
2017-04-17T04:47:05.592Z,10
2017-04-17T04:48:16.719Z,10
2017-04-17T04:49:27.948Z,10
2017-04-17T04:50:39.014Z,10
2017-04-17T04:51:50.234Z,10
2017-04-17T04:53:01.264Z,15
2017-04-17T04:54:12.498Z,15
2017-04-17T04:55:23.512Z,20
2017-04-17T04:56:34.735Z,25
2017-04-17T04:57:45.771Z,25
2017-04-17T04:58:56.805Z,30
2017-04-17T05:00:07.846Z,30
2017-04-17T05:01:18.877Z,35
2017-04-17T05:02:30.106Z,35
2017-04-17T05:03:41.133Z,40
2017-04-17T05:04:52.158Z,40
2017-04-17T05:06:03.383Z,40
2017-04-17T05:07:14.408Z,40
2017-04-17T05:08:25.428Z,40
2017-04-17T05:09:36.450Z,40
2017-04-17T05:10:47.542Z,45
2017-04-17T05:11:58.840Z,50
2017-04-17T05:13:10.126Z,50
2017-04-17T05:14:21.219Z,55
2017-04-17T05:15:32.247Z,55
2017-04-17T05:16:43.291Z,55
2017-04-17T05:17:54.332Z,55
2017-04-17T05:19:05.368Z,45
2017-04-17T05:20:16.394Z,40
2017-04-17T05:21:27.419Z,35
2017-04-17T05:22:38.690Z,35
2017-04-17T05:23:50.161Z,30
2017-04-17T05:25:01.184Z,30
2017-04-17T05:26:12.208Z,30
2017-04-17T05:27:23.238Z,30
2017-04-17T05:28:34.276Z,30
2017-04-17T05:29:45.309Z,35
2017-04-17T05:30:56.331Z,35
2017-04-17T05:32:07.355Z,35
2017-04-17T05:33:18.641Z,35
2017-04-17T05:34:29.670Z,35
2017-04-17T05:35:40.763Z,35
2017-04-17T05:36:52.193Z,35
2017-04-17T05:38:03.303Z,35
2017-04-17T05:39:14.379Z,40
2017-04-17T05:40:25.415Z,40
2017-04-17T05:41:36.437Z,45
2017-04-17T05:42:47.468Z,50
2017-04-17T05:43:58.500Z,60
2017-04-17T05:45:09.548Z,80
2017-04-17T05:46:20.576Z,100
2017-04-17T05:47:31.596Z,125
2017-04-17T05:48:42.626Z,170
2017-04-17T05:49:53.700Z,210
2017-04-17T05:51:04.735Z,220
2017-04-17T05:52:15.758Z,240
2017-04-17T05:53:26.796Z,245
2017-04-17T05:54:37.814Z,250
2017-04-17T05:55:48.841Z,305
2017-04-17T05:56:59.874Z,320
2017-04-17T05:58:11.097Z,340
2017-04-17T05:59:22.276Z,370
2017-04-17T06:00:33.571Z,315
2017-04-17T06:01:44.795Z,310
2017-04-17T06:02:55.816Z,265
2017-04-17T06:04:06.841Z,245
2017-04-17T06:05:17.857Z,195
2017-04-17T06:06:28.877Z,165
2017-04-17T06:07:39.905Z,170
2017-04-17T06:08:50.941Z,185
2017-04-17T06:10:02.183Z,190
2017-04-17T06:11:13.862Z,175
2017-04-17T06:12:25.334Z,160
2017-04-17T06:13:36.568Z,145
2017-04-17T06:14:47.592Z,135
2017-04-17T06:15:58.822Z,135
2017-04-17T06:17:10.046Z,140
2017-04-17T06:18:21.474Z,130
2017-04-17T06:19:32.506Z,130
2017-04-17T06:20:43.551Z,130
2017-04-17T06:21:54.649Z,130
2017-04-17T06:23:05.818Z,155
2017-04-17T06:24:16.878Z,190
2017-04-17T06:25:27.902Z,210
2017-04-17T06:26:39.142Z,230
2017-04-17T06:27:50.172Z,255
2017-04-17T06:29:01.211Z,280
2017-04-17T06:30:12.242Z,285
2017-04-17T06:31:23.259Z,280
2017-04-17T06:32:34.347Z,245
2017-04-17T06:33:45.575Z,205
2017-04-17T06:34:56.607Z,190
2017-04-17T06:36:07.625Z,205
2017-04-17T06:37:18.653Z,225
2017-04-17T06:38:29.676Z,240
2017-04-17T06:39:40.903Z,240
2017-04-17T06:40:51.924Z,255
2017-04-17T06:42:02.949Z,270
2017-04-17T06:43:14.038Z,300
2017-04-17T06:44:25.066Z,335
2017-04-17T06:45:36.098Z,365
2017-04-17T06:46:47.125Z,495
2017-04-17T06:47:58.271Z,1130
2017-04-17T06:49:09.311Z,655
2017-04-17T06:50:20.338Z,1855
2017-04-17T06:51:31.359Z,605
2017-04-17T06:52:42.389Z,1260
2017-04-17T06:53:53.474Z,660
2017-04-17T06:55:04.494Z,505
2017-04-17T06:56:15.524Z,435
2017-04-17T06:57:26.551Z,465
2017-04-17T06:58:37.575Z,465
2017-04-17T06:59:48.804Z,425
2017-04-17T07:00:59.850Z,360
2017-04-17T07:02:10.882Z,340
2017-04-17T07:03:21.915Z,315
2017-04-17T07:04:33.147Z,245
2017-04-17T07:05:44.170Z,300
2017-04-17T07:06:55.211Z,385
2017-04-17T07:08:06.250Z,320
2017-04-17T07:09:17.294Z,260
2017-04-17T07:10:28.324Z,215
2017-04-17T07:11:39.360Z,155
2017-04-17T07:12:50.404Z,150
2017-04-17T07:14:01.814Z,200
2017-04-17T07:15:12.896Z,440
2017-04-17T07:16:23.920Z,480
2017-04-17T07:17:35.155Z,345
2017-04-17T07:18:46.200Z,665
2017-04-17T07:19:57.429Z,360
2017-04-17T07:21:08.473Z,445
2017-04-17T07:22:19.500Z,265
2017-04-17T07:23:30.566Z,225
2017-04-17T07:24:41.813Z,215
2017-04-17T07:25:52.891Z,225
2017-04-17T07:27:04.113Z,170
2017-04-17T07:28:15.138Z,175
2017-04-17T07:29:26.187Z,195
2017-04-17T07:30:37.227Z,205
2017-04-17T07:31:48.476Z,180
2017-04-17T07:32:59.498Z,175
2017-04-17T07:34:10.530Z,165
2017-04-17T07:35:21.550Z,165
2017-04-17T07:36:32.638Z,155
2017-04-17T07:37:43.680Z,155
2017-04-17T07:38:54.748Z,155
2017-04-17T07:40:05.787Z,190
2017-04-17T07:41:16.870Z,290
2017-04-17T07:42:27.914Z,320
2017-04-17T07:43:38.953Z,350
2017-04-17T07:44:49.996Z,445
2017-04-17T07:46:01.021Z,575
2017-04-17T07:47:12.101Z,385
2017-04-17T07:48:23.324Z,390
2017-04-17T07:49:34.353Z,670
2017-04-17T07:50:45.573Z,2655
2017-04-17T07:51:56.597Z,2635
2017-04-17T07:53:07.642Z,2720
2017-04-17T07:54:18.883Z,2725
2017-04-17T07:55:29.910Z,2870
2017-04-17T07:56:40.933Z,2740
2017-04-17T07:57:52.022Z,2645
2017-04-17T07:59:03.068Z,2665
2017-04-17T08:00:14.112Z,2740
2017-04-17T08:01:25.153Z,1410
2017-04-17T08:02:36.631Z,1220
2017-04-17T08:03:47.716Z,2630
2017-04-17T08:04:58.969Z,2365
2017-04-17T08:06:10.013Z,500
2017-04-17T08:07:21.047Z,465
2017-04-17T08:08:32.134Z,465
2017-04-17T08:09:43.571Z,490
2017-04-17T08:10:54.600Z,520
2017-04-17T08:12:05.638Z,550
2017-04-17T08:13:16.868Z,600
2017-04-17T08:14:27.907Z,485
2017-04-17T08:15:38.950Z,450
2017-04-17T08:16:49.981Z,455
2017-04-17T08:18:01.253Z,455
2017-04-17T08:19:12.340Z,425
2017-04-17T08:20:23.389Z,500
2017-04-17T08:21:34.420Z,450
2017-04-17T08:22:45.449Z,425
2017-04-17T08:23:56.488Z,415
2017-04-17T08:25:07.522Z,450
2017-04-17T08:26:18.586Z,525
2017-04-17T08:27:29.849Z,2170
2017-04-17T08:28:40.889Z,420
2017-04-17T08:29:51.971Z,400
2017-04-17T08:31:03.007Z,425
2017-04-17T08:32:14.029Z,460
2017-04-17T08:33:25.062Z,490
2017-04-17T08:34:36.299Z,1660
2017-04-17T08:35:47.344Z,610
2017-04-17T08:36:58.377Z,555
2017-04-17T08:38:09.408Z,550
2017-04-17T08:39:20.441Z,470
2017-04-17T08:40:31.731Z,345
2017-04-17T08:41:42.764Z,330
2017-04-17T08:42:53.801Z,500
2017-04-17T08:44:04.834Z,2905
2017-04-17T08:45:15.860Z,2905
2017-04-17T08:46:26.939Z,2805
2017-04-17T08:47:37.970Z,940
2017-04-17T08:48:49.021Z,600
2017-04-17T08:50:00.262Z,570
2017-04-17T08:51:11.343Z,495
2017-04-17T08:52:22.375Z,510
2017-04-17T08:53:33.476Z,565
2017-04-17T08:54:44.542Z,2010
2017-04-17T08:55:55.585Z,2790
2017-04-17T08:57:06.627Z,825
2017-04-17T08:58:17.688Z,560
2017-04-17T08:59:28.731Z,1795
2017-04-17T09:00:39.779Z,1950
2017-04-17T09:01:51.061Z,2920
2017-04-17T09:03:02.099Z,2910
2017-04-17T09:04:13.143Z,870
2017-04-17T09:05:24.207Z,2745
2017-04-17T09:06:35.438Z,665
2017-04-17T09:07:46.479Z,525
2017-04-17T09:08:57.532Z,460
2017-04-17T09:10:08.567Z,470
2017-04-17T09:11:19.609Z,580
2017-04-17T09:12:30.917Z,2680
2017-04-17T09:13:41.980Z,1285
2017-04-17T09:14:53.018Z,970
2017-04-17T09:16:04.072Z,765
2017-04-17T09:17:15.502Z,1100
2017-04-17T09:18:26.529Z,725
2017-04-17T09:19:37.571Z,445
2017-04-17T09:20:48.614Z,425
2017-04-17T09:21:59.651Z,425
2017-04-17T09:23:10.940Z,415
2017-04-17T09:24:21.989Z,405
2017-04-17T09:25:33.034Z,405
2017-04-17T09:26:44.066Z,435
2017-04-17T09:27:55.116Z,445
2017-04-17T09:29:06.595Z,460
2017-04-17T09:30:17.634Z,445
2017-04-17T09:31:28.678Z,440
2017-04-17T09:32:39.712Z,470
2017-04-17T09:33:51.003Z,665
2017-04-17T09:35:02.044Z,2335
2017-04-17T09:36:13.089Z,2760
2017-04-17T09:37:24.125Z,2740
2017-04-17T09:38:35.174Z,2720
2017-04-17T09:39:46.199Z,2640
2017-04-17T09:40:57.243Z,2325
2017-04-17T09:42:08.284Z,555
2017-04-17T09:43:19.340Z,2780
2017-04-17T09:44:30.625Z,1825
2017-04-17T09:45:41.984Z,630
2017-04-17T09:46:53.231Z,2995
2017-04-17T09:48:04.433Z,1635
2017-04-17T09:49:15.465Z,1095
2017-04-17T09:50:26.510Z,610
2017-04-17T09:51:37.550Z,570
2017-04-17T09:52:48.598Z,620
2017-04-17T09:53:59.636Z,620
2017-04-17T09:55:10.878Z,855
2017-04-17T09:56:21.928Z,955
2017-04-17T09:57:32.972Z,540
2017-04-17T09:58:44.002Z,465
2017-04-17T09:59:55.044Z,415
2017-04-17T10:01:06.086Z,400
2017-04-17T10:02:17.124Z,415
2017-04-17T10:03:28.164Z,2480
2017-04-17T10:04:39.417Z,2445
2017-04-17T10:05:50.461Z,2315
2017-04-17T10:07:01.506Z,2590
2017-04-17T10:08:12.554Z,2655
2017-04-17T10:09:23.595Z,2635
2017-04-17T10:10:34.877Z,2620
2017-04-17T10:11:46.070Z,585
2017-04-17T10:12:57.119Z,455
2017-04-17T10:14:08.277Z,430
2017-04-17T10:15:19.568Z,420
2017-04-17T10:16:30.615Z,445
2017-04-17T10:17:41.669Z,495
2017-04-17T10:18:52.724Z,580
2017-04-17T10:20:03.761Z,625
2017-04-17T10:21:15.046Z,515
2017-04-17T10:22:26.067Z,410
2017-04-17T10:23:37.318Z,400
2017-04-17T10:24:48.359Z,475
2017-04-17T10:25:59.597Z,2510
2017-04-17T10:27:10.836Z,575
2017-04-17T10:28:21.867Z,515
2017-04-17T10:29:32.902Z,470
2017-04-17T10:30:43.936Z,465
2017-04-17T10:31:55.026Z,565
2017-04-17T10:33:06.061Z,635
2017-04-17T10:34:17.313Z,565
2017-04-17T10:35:28.557Z,2410
2017-04-17T10:36:39.593Z,2330
2017-04-17T10:37:50.750Z,2280
2017-04-17T10:39:01.791Z,2270
2017-04-17T10:40:12.838Z,2270
2017-04-17T10:41:23.876Z,2225
2017-04-17T10:42:35.173Z,2240
2017-04-17T10:43:46.207Z,2200
2017-04-17T10:44:57.439Z,2160
2017-04-17T10:46:08.683Z,2100
2017-04-17T10:47:19.922Z,2180
2017-04-17T10:48:30.984Z,785
2017-04-17T10:49:42.031Z,1045
2017-04-17T10:50:53.088Z,1955
2017-04-17T10:52:04.121Z,740
2017-04-17T10:53:15.422Z,1235
2017-04-17T10:54:26.489Z,1805
2017-04-17T10:55:37.725Z,1790
2017-04-17T10:56:48.774Z,590
2017-04-17T10:57:59.829Z,1945
2017-04-17T10:59:10.888Z,2000
2017-04-17T11:00:22.335Z,2030
2017-04-17T11:01:33.470Z,2035
2017-04-17T11:02:44.524Z,2065
2017-04-17T11:03:55.621Z,2095
2017-04-17T11:05:06.791Z,2165
2017-04-17T11:06:17.963Z,2195
2017-04-17T11:07:29.266Z,2235
2017-04-17T11:08:40.412Z,660
2017-04-17T11:09:51.465Z,1280
2017-04-17T11:11:02.503Z,660
2017-04-17T11:12:13.552Z,2035
2017-04-17T11:13:24.600Z,690
2017-04-17T11:14:35.699Z,575
2017-04-17T11:15:46.950Z,520
2017-04-17T11:16:58.001Z,445
2017-04-17T11:18:09.046Z,485
2017-04-17T11:19:20.499Z,440
2017-04-17T11:20:31.544Z,360
2017-04-17T11:21:42.583Z,315
2017-04-17T11:22:53.611Z,270
2017-04-17T11:24:04.655Z,230
2017-04-17T11:25:15.735Z,205
2017-04-17T11:26:27.180Z,180
2017-04-17T11:27:38.221Z,170
2017-04-17T11:28:49.478Z,165
2017-04-17T11:30:00.523Z,160
2017-04-17T11:31:11.647Z,155
2017-04-17T11:32:22.723Z,155
2017-04-17T11:33:33.926Z,160
2017-04-17T11:34:44.975Z,170
2017-04-17T11:35:56.066Z,195
2017-04-17T11:37:07.109Z,240
2017-04-17T11:38:18.356Z,340
2017-04-17T11:39:29.407Z,480
2017-04-17T11:40:40.442Z,515
2017-04-17T11:41:51.483Z,600
2017-04-17T11:43:02.519Z,590
2017-04-17T11:44:13.566Z,580
2017-04-17T11:45:24.608Z,545
2017-04-17T11:46:35.697Z,525
2017-04-17T11:47:46.723Z,515
2017-04-17T11:48:57.769Z,495
2017-04-17T11:50:08.816Z,525
2017-04-17T11:51:20.044Z,495
2017-04-17T11:52:31.077Z,490
2017-04-17T11:53:42.329Z,475
2017-04-17T11:54:53.371Z,460
2017-04-17T11:56:04.408Z,435
2017-04-17T11:57:15.638Z,400
2017-04-17T11:58:26.658Z,380
2017-04-17T11:59:37.977Z,330
2017-04-17T12:00:49.148Z,295
2017-04-17T12:02:00.524Z,315
2017-04-17T12:03:11.547Z,340
2017-04-17T12:04:22.585Z,485
2017-04-17T12:05:33.614Z,715
2017-04-17T12:06:44.653Z,590
2017-04-17T12:07:55.948Z,910
2017-04-17T12:09:07.180Z,1390
2017-04-17T12:10:18.207Z,1305
2017-04-17T12:11:29.238Z,1240
2017-04-17T12:12:40.284Z,1215
2017-04-17T12:13:51.332Z,1165
2017-04-17T12:15:02.387Z,1155
2017-04-17T12:16:13.620Z,1100
2017-04-17T12:17:24.659Z,1075
2017-04-17T12:18:35.952Z,1065
2017-04-17T12:19:46.990Z,1045
2017-04-17T12:20:58.025Z,1025
2017-04-17T12:22:09.097Z,985
2017-04-17T12:23:20.138Z,1005
2017-04-17T12:24:31.186Z,955
2017-04-17T12:25:42.432Z,895
2017-04-17T12:26:53.644Z,870
2017-04-17T12:28:04.982Z,840
2017-04-17T12:29:16.014Z,815
2017-04-17T12:30:27.056Z,805
2017-04-17T12:31:38.088Z,810
2017-04-17T12:32:49.351Z,805
2017-04-17T12:34:00.450Z,780
2017-04-17T12:35:11.483Z,750
2017-04-17T12:36:22.518Z,750
2017-04-17T12:37:33.567Z,760
2017-04-17T12:38:44.612Z,750
2017-04-17T12:39:55.651Z,750
2017-04-17T12:41:06.701Z,750
2017-04-17T12:42:17.734Z,760
2017-04-17T12:43:28.772Z,755
2017-04-17T12:44:39.917Z,775
2017-04-17T12:45:50.959Z,790
2017-04-17T12:47:02.003Z,380
2017-04-17T12:48:13.034Z,385
2017-04-17T12:49:24.095Z,375
2017-04-17T12:50:35.135Z,385
2017-04-17T12:51:46.373Z,390
2017-04-17T12:52:57.415Z,515
2017-04-17T12:54:08.725Z,410
2017-04-17T12:55:20.011Z,385
2017-04-17T12:56:31.071Z,365
2017-04-17T12:57:42.224Z,350
2017-04-17T12:58:53.269Z,355
2017-04-17T13:00:04.319Z,330
2017-04-17T13:01:15.356Z,320
2017-04-17T13:02:26.390Z,315
2017-04-17T13:03:37.637Z,315
2017-04-17T13:04:48.675Z,310
2017-04-17T13:05:59.956Z,310
2017-04-17T13:07:11.190Z,310
2017-04-17T13:08:22.435Z,300
2017-04-17T13:09:33.671Z,265
2017-04-17T13:10:44.716Z,220
2017-04-17T13:11:55.742Z,175
2017-04-17T13:13:06.767Z,130
2017-04-17T13:14:17.800Z,105
2017-04-17T13:15:28.842Z,105
2017-04-17T13:16:39.921Z,105
2017-04-17T13:17:50.955Z,110
2017-04-17T13:19:01.988Z,105
2017-04-17T13:20:13.025Z,100
2017-04-17T13:21:24.462Z,90
2017-04-17T13:22:35.486Z,85
2017-04-17T13:23:46.535Z,85
2017-04-17T13:24:57.562Z,80
2017-04-17T13:26:08.803Z,80
2017-04-17T13:27:20.074Z,105
2017-04-17T13:28:31.103Z,135
2017-04-17T13:29:42.142Z,185
2017-04-17T13:30:53.159Z,210
2017-04-17T13:32:04.188Z,220
2017-04-17T13:33:15.221Z,255
2017-04-17T13:34:26.253Z,295
2017-04-17T13:35:37.292Z,340
2017-04-17T13:36:48.529Z,380
2017-04-17T13:37:59.814Z,415
2017-04-17T13:39:11.061Z,440
2017-04-17T13:40:22.095Z,445
2017-04-17T13:41:33.333Z,460
2017-04-17T13:42:44.362Z,470
2017-04-17T13:43:55.812Z,505
2017-04-17T13:45:06.837Z,505
2017-04-17T13:46:17.898Z,495
2017-04-17T13:47:28.929Z,490
2017-04-17T13:48:40.250Z,480
2017-04-17T13:49:51.291Z,475
2017-04-17T13:51:02.319Z,465
2017-04-17T13:52:13.367Z,460
2017-04-17T13:53:24.401Z,460
2017-04-17T13:54:35.670Z,465
2017-04-17T13:55:46.707Z,470
2017-04-17T13:56:57.950Z,470
2017-04-17T13:58:08.977Z,490
2017-04-17T13:59:20.269Z,560
2017-04-17T14:00:31.304Z,620
2017-04-17T14:01:42.345Z,625
2017-04-17T14:02:53.571Z,630
2017-04-17T14:04:04.816Z,655
2017-04-17T14:05:16.060Z,675
2017-04-17T14:06:27.072Z,665
2017-04-17T14:07:38.101Z,625
2017-04-17T14:08:49.355Z,595
2017-04-17T14:10:00.634Z,605
2017-04-17T14:11:11.871Z,620
2017-04-17T14:12:23.189Z,625
2017-04-17T14:13:34.629Z,640
2017-04-17T14:14:45.837Z,645
2017-04-17T14:15:57.125Z,275
2017-04-17T14:17:08.168Z,275
2017-04-17T14:18:19.193Z,595
2017-04-17T14:19:30.222Z,455
2017-04-17T14:20:41.268Z,285
2017-04-17T14:21:52.298Z,290
2017-04-17T14:23:03.540Z,275
2017-04-17T14:24:14.578Z,260
2017-04-17T14:25:25.875Z,260
2017-04-17T14:26:36.928Z,255
2017-04-17T14:27:48.167Z,250
2017-04-17T14:28:59.210Z,245
2017-04-17T14:30:10.244Z,250
2017-04-17T14:31:21.274Z,245
2017-04-17T14:32:32.306Z,240
2017-04-17T14:33:43.348Z,240
2017-04-17T14:34:54.787Z,285
2017-04-17T14:36:06.274Z,330
2017-04-17T14:37:17.310Z,315
2017-04-17T14:38:28.345Z,330
2017-04-17T14:39:39.373Z,275
2017-04-17T14:40:50.462Z,360
2017-04-17T14:42:01.898Z,355
2017-04-17T14:43:12.938Z,295
2017-04-17T14:44:23.975Z,280
2017-04-17T14:45:35.012Z,275
2017-04-17T14:46:46.030Z,280
2017-04-17T14:47:57.072Z,250
2017-04-17T14:49:08.102Z,240
2017-04-17T14:50:19.145Z,230
2017-04-17T14:51:30.181Z,225
2017-04-17T14:52:41.274Z,215
2017-04-17T14:53:52.310Z,215
2017-04-17T14:55:03.342Z,220
2017-04-17T14:56:14.370Z,225
2017-04-17T14:57:25.408Z,225
2017-04-17T14:58:36.444Z,255
2017-04-17T14:59:47.885Z,295
2017-04-17T15:00:58.921Z,290
2017-04-17T15:02:09.961Z,300
2017-04-17T15:03:21.039Z,305
2017-04-17T15:04:32.276Z,310
2017-04-17T15:05:43.304Z,325
2017-04-17T15:06:54.351Z,335
2017-04-17T15:08:05.392Z,345
2017-04-17T15:09:16.720Z,320
2017-04-17T15:10:27.747Z,270
2017-04-17T15:11:38.775Z,220
2017-04-17T15:12:49.823Z,185
2017-04-17T15:14:01.313Z,170
2017-04-17T15:15:12.352Z,175
2017-04-17T15:16:23.378Z,155
2017-04-17T15:17:34.609Z,165
2017-04-17T15:18:45.657Z,175
2017-04-17T15:19:56.943Z,200
2017-04-17T15:21:07.980Z,215
2017-04-17T15:22:19.003Z,270
2017-04-17T15:23:30.032Z,250
2017-04-17T15:24:41.068Z,295
2017-04-17T15:25:52.108Z,285
2017-04-17T15:27:03.134Z,325
2017-04-17T15:28:14.170Z,270
2017-04-17T15:29:25.609Z,315
2017-04-17T15:30:36.684Z,315
2017-04-17T15:31:47.722Z,285
2017-04-17T15:32:58.760Z,340
2017-04-17T15:34:09.797Z,330
2017-04-17T15:35:21.022Z,320
2017-04-17T15:36:32.247Z,295
2017-04-17T15:37:43.477Z,285
2017-04-17T15:38:54.513Z,200
2017-04-17T15:40:05.551Z,160
2017-04-17T15:41:17.224Z,135
2017-04-17T15:42:28.266Z,115
2017-04-17T15:43:39.647Z,100
2017-04-17T15:44:50.678Z,130
2017-04-17T15:46:02.106Z,100
2017-04-17T15:47:13.334Z,95
2017-04-17T15:48:24.373Z,80
2017-04-17T15:49:35.399Z,85
2017-04-17T15:50:46.643Z,90
2017-04-17T15:51:57.719Z,100
2017-04-17T15:53:08.757Z,100
2017-04-17T15:54:19.996Z,100
2017-04-17T15:55:31.019Z,105
2017-04-17T15:56:42.045Z,95
2017-04-17T15:57:53.078Z,90
2017-04-17T15:59:04.322Z,95
2017-04-17T16:00:15.549Z,105
2017-04-17T16:01:26.584Z,115
2017-04-17T16:02:37.623Z,130
2017-04-17T16:03:48.665Z,180
2017-04-17T16:04:59.691Z,200
2017-04-17T16:06:10.929Z,210
2017-04-17T16:07:21.953Z,230
2017-04-17T16:08:32.992Z,240
2017-04-17T16:09:44.041Z,255
2017-04-17T16:10:55.159Z,270
2017-04-17T16:12:06.193Z,275
2017-04-17T16:13:17.475Z,225
2017-04-17T16:14:28.515Z,225
2017-04-17T16:15:39.543Z,225
2017-04-17T16:16:50.574Z,210
2017-04-17T16:18:01.605Z,210
2017-04-17T16:19:12.646Z,210
2017-04-17T16:20:23.875Z,205
2017-04-17T16:21:34.903Z,200
2017-04-17T16:22:46.160Z,200
2017-04-17T16:23:57.434Z,195
2017-04-17T16:25:08.476Z,185
2017-04-17T16:26:19.509Z,180
2017-04-17T16:27:30.539Z,170
2017-04-17T16:28:41.575Z,200
2017-04-17T16:29:52.622Z,190
2017-04-17T16:31:03.655Z,190
2017-04-17T16:32:14.706Z,190
2017-04-17T16:33:25.726Z,195
2017-04-17T16:34:36.995Z,185
2017-04-17T16:35:48.230Z,190
2017-04-17T16:36:59.661Z,185